Regional Weather Synopsis
Issued by NWS Denver/Boulder, CO

Home | Current Version | Previous Version | Text Only | Print | Product List | Glossary On
Versions: 1 2 3 4 5 6 7 8 9 10 11 12 13 14 15 16 17 18 19 20 21 22 23 24 25 26 27 28 29 30 31 32 33 34 35 36 37 38 39 40 41 42 43 44 45 46 47 48 49 50
000
NZUS99 KBOU 072106
SYNBOU

Hot-Air Balloon Forecast for Colorado
National Weather Service Denver/Boulder, Colorado
1405 MST Sunday, March 7, 2021


* * * * * Northeast Colorado * * * * *

METAR KFNL 072056Z VRB04KT 10SM CLR 20/M09 A3005 RMK AO2 SLP147
       T02001089 58014
METAR KFNL 071956Z 19010KT 10SM CLR 19/M08 A3006 RMK AO2 SLP150
       T01941083
METAR KFNL 071856Z 15009KT 10SM CLR 18/M08 A3008 RMK AO2 SLP159
       T01831083

METAR KGXY 072056Z AUTO 16008KT 10SM CLR 20/M06 A3005 RMK AO2 SLP175
       T02001061 56016
METAR KGXY 071956Z AUTO 16011KT 10SM CLR 21/M07 A3006 RMK AO2 SLP172
       T02061072
METAR KGXY 071856Z AUTO 12006KT 10SM CLR 17/M06 A3008 RMK AO2 SLP188
       T01721061

METAR KLMO 072055Z AUTO 13006KT 10SM CLR 21/M10 A3005 RMK AO2
       T02081100
METAR KLMO 072035Z AUTO 15003KT 10SM CLR 21/M10 A3006 RMK AO2
       T02091096
METAR KLMO 072015Z AUTO 16004KT 10SM CLR 20/M10 A3006 RMK AO2
       T02021100

METAR KBDU 072055Z AUTO 11006KT 10SM CLR 19/M09 A3003 RMK AO2
METAR KBDU 072035Z AUTO 13006KT 10SM CLR 19/M09 A3004 RMK AO2
METAR KBDU 072015Z AUTO 12005KT 10SM CLR 18/M08 A3004 RMK AO2

METAR KEIK 072055Z AUTO 13004KT 10SM CLR 20/M12 A3004 RMK AO2 T01991122
        PWINO
METAR KEIK 072035Z AUTO 12007KT 10SM CLR 20/M12 A3004 RMK AO2 T01961119
       PWINO
METAR KEIK 072015Z AUTO 14010KT 10SM CLR 20/M11 A3005 RMK AO2 T02001115
       PWINO

KBJC 071720Z 0718/0818 VRB04KT P6SM BKN220
     FM071900 12008KT P6SM SCT220
     FM080100 31006KT P6SM SCT220
METAR KBJC 072048Z VRB04KT 10SM BKN090 BKN120 19/M11 A3006
METAR KBJC 071950Z VRB04KT 10SM BKN090 BKN120 19/M11 A3011
METAR KBJC 071850Z 20008G15KT 10SM BKN220 19/M10 A3011

KDEN 072030Z 0721/0824 17010KT P6SM SCT220
     FM080300 19010KT P6SM SCT220
     FM081600 24008KT P6SM BKN180
     FM082100 25012KT P6SM BKN180
METAR KDEN 072053Z 16008G16KT 10SM BKN220 21/M11 A3005 RMK AO2 SLP126
       T02061106 58017
METAR KDEN 071953Z 17009KT 10SM FEW120 BKN220 19/M11 A3007 RMK AO2
       SLP141 T01941106
METAR KDEN 071853Z VRB06KT 10SM FEW120 BKN220 19/M10 A3009 RMK AO2
       SLP144 T01891100


KBKF 071700Z 0717/0823 VRB06KT 9999 BKN200 QNH3008INS
     BECMG 0811/0812 21009KT 9999 SCT180 QNH2994INS
     TEMPO 0818/0820 BKN140 TX17/0721Z TN03/0811Z
METAR KBKF 072058Z 23006KT 10SM FEW100 FEW160 BKN220 20/M10 A3005 RMK
        AO2A SLP130 T01981105 57018
METAR KBKF 071858Z COR 19012KT 10SM FEW160 BKN220 18/M09 A3010 RMK
        AO2A SLP151 T01771093 COR 1908
METAR KBKF 071958Z 17007KT 10SM FEW160 BKN220 19/M10 A3008 RMK AO2A
        SLP140 T01891101

KAPA 071720Z 0718/0818 VRB06KT P6SM BKN220
     FM071900 13009KT P6SM SCT220
     FM080400 19008KT P6SM SCT220
METAR KAPA 072053Z 16012G20KT 10SM FEW120 BKN160 BKN220 18/M11 A3005 RMK
       AO2 SLP136 T01831106 58019
METAR KAPA 071953Z 17014G19KT 10SM SCT120 BKN170 BKN220 18/M11 A3008 RMK
       AO2 SLP147 T01831111
METAR KAPA 071853Z 14007G16KT 10SM BKN140 BKN170 BKN220 17/M11 A3010 RMK
       AO2 SLP156 T01721106

METAR KMNH 072055Z AUTO 15014G20KT 10SM CLR 14/M10 A3015 RMK AO2
METAR KMNH 072035Z AUTO 15013G16KT 10SM CLR 15/M10 A3015 RMK AO2
METAR KMNH 072015Z AUTO 17009G17KT 10SM CLR 15/M10 A3016 RMK AO2

METAR KFMM 072055Z AUTO 10009KT 10SM CLR 19/M09 A3006 RMK AO2
       T01891090
METAR KFMM 072035Z AUTO 10007KT 10SM CLR 19/M09 A3006 RMK AO2
       T01881088
METAR KFMM 072015Z AUTO 10005KT 10SM CLR 19/M09 A3006 RMK AO2
       T01901088

METAR KSTK 072055Z AUTO 13003KT 10SM CLR 20/M06 A3004 RMK AO2
METAR KSTK 072035Z AUTO 28003KT 10SM CLR 20/M05 A3004 RMK AO2
METAR KSTK 072015Z AUTO 25005KT 10SM CLR 20/M05 A3004 RMK AO2

METAR KAKO 072053Z AUTO 00000KT 10SM CLR 18/M09 A3007 RMK AO2 SLP162
       T01831089 58012
METAR KAKO 071953Z AUTO 12007KT 10SM CLR 18/M08 A3007 RMK AO2 SLP162
       T01831078
METAR KAKO 071853Z AUTO VRB03KT 10SM CLR 17/M08 A3010 RMK AO2 SLP170
       T01671083

METAR KLIC 072055Z AUTO 15010G18KT 10SM CLR 18/M09 A3010 RMK AO2 SLP168
       T01831089 58009 $
METAR KLIC 071955Z AUTO 17009G20KT 10SM CLR 19/M08 A3011 RMK AO2 SLP169
       T01891078 $
METAR KLIC 071855Z AUTO 16009KT 10SM CLR 18/M08 A3013 RMK AO2 SLP180
       T01781083 $

METAR KHEQ 072055Z AUTO 31005KT 10SM CLR 23/M07 A3005 RMK AO2
METAR KHEQ 072035Z AUTO 00000KT 10SM CLR 23/M07 A3005 RMK AO2
METAR KHEQ 072015Z AUTO 33003KT 10SM CLR 23/M05 A3005 RMK AO2

METAR K2V6 072059Z AUTO 00000KT 10SM CLR 19/M07 A3006 RMK AO2
METAR K2V6 072039Z AUTO 00000KT 10SM CLR 20/M06 A3006 RMK AO2
METAR K2V6 072019Z AUTO 00000KT 10SM CLR 18/M07 A3006 RMK AO2

METAR K2V5 072055Z AUTO 04004G17KT 10SM CLR 22/M07 A3005 RMK AO2
METAR K2V5 072035Z AUTO 02005G16KT 10SM CLR 22/M07 A3005 RMK AO2
METAR K2V5 072015Z AUTO 35007G14KT 10SM CLR 22/M07 A3005 RMK AO2

METAR KITR 072053Z AUTO 03009G17KT 10SM CLR 23/M06 A3006 RMK AO2 SLP153
       T02281056 56007
METAR KITR 071953Z AUTO 07014G19KT 10SM CLR 22/M06 A3007 RMK AO2 SLP151
       T02221056
METAR KITR 071853Z AUTO 05011G19KT 10SM CLR 22/M06 A3008 RMK AO2 SLP155
        T02171056

Sunrise/Sunset for 03/07/2021
Fort Collins - 06:23:48 MST / 17:58:30 MST
Denver       - 06:22:56 MST / 17:58:30 MST
Sterling     - 06:16:26 MST / 17:51:02 MST

Denver/Boulder (KFTG) 03/07/21 20:51 UTC
Radar VAD winds      Height      Dir/Spd(kt)
                  10000 FT MSL...184/014
                   9000 FT MSL...184/013
                   8400 FT MSL...165/010
                   8000 FT MSL...179/012
                   7000 FT MSL...172/014
                   6600 FT MSL...170/014
                   6500 FT MSL...160/009

Denver/Boulder Aviation Discussion
Issued at 1722 UTC Sunday, March  7, 2021

.AVIATION...(For the 18Z TAFS through 18Z Monday afternoon)
Issued at 1015 AM MST Sun Mar 7 2021
VFR through the TAF period.


* * * * * Southeast Colorado * * * * *

METAR K4BM 072055Z AUTO 19008KT 10SM CLR 03/M12 A3033 RMK AO2
METAR K4BM 072035Z AUTO 19009G16KT 10SM CLR 03/M13 A3033 RMK AO2
METAR K4BM 072015Z AUTO 18009G15KT 10SM CLR 03/M13 A3033 RMK AO2

METAR KAFF 072058Z AUTO 18015G19KT 10SM CLR 17/M14 A3010 RMK AO2 SLP137
        T01681139 57018
SPECI KAFF 072048Z AUTO 15014G17KT 10SM CLR 17/M14 A3010 RMK AO2 WSHFT
       43 SLP137
SPECI KAFF 072034Z AUTO 18010G21KT 10SM CLR 17/M14 A3011 RMK AO2 WSHFT
       29 SLP140

KCOS 071723Z 0718/0818 16012KT P6SM SCT220
     FM080400 10006KT P6SM FEW160 SCT200
     FM080900 03006KT P6SM SCT120 BKN160
     FM081700 16008KT P6SM BKN080
METAR KCOS 072054Z 15015G23KT 10SM SCT150 BKN220 18/M11 A3012 RMK AO2
        SLP152 T01781111 58015
METAR KCOS 071954Z 15011G15KT 10SM SCT180 BKN220 18/M11 A3014 RMK AO2
        SLP155 T01781111
METAR KCOS 071854Z 13015G21KT 10SM BKN180 17/M11 A3016 RMK AO2 SLP170
        T01671106

METAR KABH 072058Z AUTO 17008G15KT 10SM CLR 17/M13 A3014 RMK AO2 SLP178
        T01691127 57012
SPECI KABH 072037Z AUTO 16011G20KT 10SM CLR 17/M13 A3014 RMK AO2 WSHFT
       33 SLP173
SPECI KABH 072031Z AUTO 18012G20KT 10SM CLR 17/M13 A3014 RMK AO2 WSHFT
       28 SLP183

METAR KFLY 072055Z AUTO 14009G14KT 10SM CLR 16/M14 A3016 RMK AO2 T01591138
METAR KFLY 072035Z AUTO 19007G16KT 150V210 10SM CLR 17/M14 A3016 RMK AO2
       T01691139
METAR KFLY 072015Z AUTO 16009G17KT 140V200 10SM CLR 16/M14 A3017 RMK AO2
       T01611137

KFCS 072100Z 0721/0903 17012KT 9999 SKC 510006 QNH3010INS
     BECMG 0811/0812 VRB06KT 9999 SCT170 510005 QNH3013INS
     BECMG 0815/0816 25009KT 9999 BKN100 520006 QNH2997INS
     TEMPO 0820/0823 22015G20KT 621003
     BECMG 0823/0824 VRB06KT 9999 FEW200 510007 QNH2998INS TX19/0722Z
     TNM01/0811Z
METAR KFCS 072058Z AUTO 16015G17KT 10SM CLR 19/M15 A3008 RMK AO2 SLP177
        T01891147 57019 $
SPECI KFCS 072016Z AUTO 18012G22KT 10SM CLR 19/M15 A3009 RMK AO2 WSHFT
       08 SLP171 $
METAR KFCS 071958Z AUTO 13008G18KT 10SM CLR 18/M15 A3010 RMK AO2 SLP179
        T01811153 $

KPUB 071723Z 0718/0818 15008KT P6SM FEW250
     FM080300 10006KT P6SM SCT200
     FM080800 27006KT P6SM SCT130 BKN200
     FM081600 25009KT P6SM BKN080
METAR KPUB 072053Z 13014G19KT 10SM CLR 22/M12 A3006 RMK AO2 SLP145
       T02171122 58019
METAR KPUB 071953Z 13008G16KT 10SM CLR 21/M12 A3008 RMK AO2 SLP158
       T02111122
METAR KPUB 071853Z VRB04KT 10SM CLR 20/M12 A3011 RMK AO2 SLP166
       T02001117

METAR KVTP 072055Z AUTO 26008KT 10SM CLR 05/M10 A3029 RMK AO2
METAR KVTP 072035Z AUTO 26006KT 10SM CLR 04/M10 A3029 RMK AO2
METAR KVTP 072015Z AUTO 26011G16KT 10SM CLR 04/M11 A3029 RMK AO2

METAR KTAD 072054Z AUTO 05005KT 10SM CLR 19/M11 A3011 RMK AO2 SLP151
        T01941106 58017
METAR KTAD 071954Z AUTO 10SM CLR 19/M11 A3013 RMK AO2 SLP154 T01891111
METAR KTAD 071854Z AUTO 03013G19KT 10SM CLR 19/M09 A3015 RMK AO2 SLP161
        T01941094

METAR KLHX 072053Z AUTO 10SM CLR 22/M09 A3007 RMK AO2 SLP143 T02221094
       58017 TSNO
METAR KLHX 071953Z AUTO 09007KT 10SM CLR 22/M08 A3008 RMK AO2 SLP149
       T02171083 TSNO
METAR KLHX 071853Z AUTO 12008KT 10SM CLR 21/M09 A3011 RMK AO2 SLP160
       T02061089 TSNO

METAR KLAA 072053Z AUTO 10011G17KT 10SM CLR 23/M07 A3003 RMK AO2 SLP139
        T02281067 56013 TSNO
METAR KLAA 071953Z AUTO 05009G17KT 10SM CLR 24/M07 A3003 RMK AO2 SLP135
       T02391072 TSNO
METAR KLAA 071853Z AUTO 04006G14KT 10SM CLR 22/M06 A3005 RMK AO2 SLP145
       T02221061 TSNO

METAR KSPD 072056Z AUTO 22/M09 A3007 RMK AO1 SLP144 T02221094 57007
       $
METAR KSPD 071956Z AUTO 01008G19KT 22/M09 A3007 RMK AO1 SLP145 T02171094
       $
METAR KSPD 071856Z AUTO 35014G23KT 22/M09 A3009 RMK AO1 SLP149 T02171094
       $

Sunrise/Sunset for 03/07/2021
Burlington - 06:11:57 MST / 17:47:58 MST
Pueblo     - 06:20:49 MST / 17:57:54 MST
Lamar      - 06:12:43 MST / 17:49:59 MST

Pueblo (KPUX) 03/07/21 20:54 UTC
Radar VAD winds      Height      Dir/Spd(kt)
                   8000 FT MSL...153/014
                   7900 FT MSL...147/011
                   7100 FT MSL...145/013
                   7000 FT MSL...152/013
                   6500 FT MSL...151/012
                   6000 FT MSL...149/013
                   5900 FT MSL...149/013
                   5700 FT MSL...151/012

Pueblo Aviation Discussion
Issued at 1723 UTC Sunday, March  7, 2021

.AVIATION...(For the 18Z TAFS through 18Z Monday afternoon)
Issued at 1021 AM MST Sun Mar 7 2021
VFR conditions at all three terminals through the next 24 hours.
Expect mid and high level clouds to increase across the region
tonight and through the morning hours. Winds will be light and
diurnally driven through Monday morning before becoming westerly
by mid day.  Mozley


* * * * * Northwest Colorado * * * * *

METAR KCAG 072053Z AUTO 09004KT 10SM CLR 13/M04 A3013 RMK AO2 SLP199
       T01281044 58014
METAR KCAG 071953Z AUTO 09006KT 10SM CLR 11/M05 A3015 RMK AO2 SLP205
       T01111050
METAR KCAG 071853Z AUTO 06004KT 10SM CLR 11/M04 A3017 RMK AO2 SLP211
       T01061044

METAR KHDN 072056Z AUTO 00000KT 10SM CLR 12/M03 A3015 RMK AO2 SLP195
       T01171033 58012
METAR KHDN 071956Z AUTO 14003KT 10SM CLR 08/M03 A3017 RMK AO2 SLP210
       T00781033
METAR KHDN 071856Z AUTO 00000KT 10SM CLR 07/M03 A3019 RMK AO2 SLP219
       T00671033

METAR KSBS 072055Z AUTO 00000KT 10SM CLR 08/M05 A3014 RMK AO1
       T00821052
METAR KSBS 072035Z AUTO 00000KT 10SM CLR 06/M05 A3014 RMK AO1
       T00631054
METAR KSBS 072015Z AUTO 00000KT 10SM CLR 07/M05 A3015 RMK AO1
       T00711055

METAR KC07 072055Z AUTO 23005KT 10SM CLR 05/M07 A3028 RMK AO2
METAR KC07 072035Z AUTO 26004KT 10SM CLR 04/M08 A3028 RMK AO2
METAR KC07 072015Z AUTO 26005KT 10SM CLR 04/M08 A3029 RMK AO2

METAR K33V 072055Z AUTO 20008KT 10SM CLR 10/M08 A3019 RMK AO2 T00971084
METAR K33V 072035Z AUTO 19007KT 10SM CLR 10/M08 A3020 RMK AO2
       T00971077
METAR K33V 072015Z AUTO 21010KT 10SM CLR 10/M08 A3020 RMK AO2
       T00971079

METAR KEEO 072053Z AUTO 22010KT 10SM CLR 13/M08 A3013 RMK AO2 SLP155
       T01331078 58012
METAR KEEO 071953Z AUTO 20011KT 10SM CLR 12/M06 A3014 RMK AO2 SLP167
       T01221056
METAR KEEO 071853Z AUTO 19011KT 10SM CLR 12/M05 A3016 RMK AO2 SLP175
       T01171050

METAR K20V 072055Z AUTO 12003KT 10SM CLR 08/M01 A3018 RMK AO2
METAR K20V 072035Z AUTO 11004KT 10SM CLR 07/M02 A3019 RMK AO2
METAR K20V 072015Z AUTO 00000KT 10SM CLR 07/M03 A3020 RMK AO2

METAR KGNB 072055Z AUTO 00000KT 10SM CLR 06/M05 A3020 RMK AO2
       T00571055
METAR KGNB 072035Z AUTO 00000KT 10SM CLR 05/M05 A3021 RMK AO2
       T00481053
METAR KGNB 072015Z AUTO 00000KT 10SM CLR 04/M06 A3022 RMK AO2
       T00381064

METAR K0CO 072055Z AUTO 27016G28KT 10SM CLR M01/M09 A3033 RMK AO2
METAR K0CO 072035Z AUTO 25013G22KT 10SM CLR M01/M09 A3033 RMK AO2
METAR K0CO 072015Z AUTO 24013G25KT 10SM CLR M01/M09 A3034 RMK AO2

METAR KC99 072055Z AUTO 25005KT 10SM CLR 04/M15 A3028 RMK AO2
METAR KC99 072035Z AUTO 22004KT 10SM CLR 03/M15 A3028 RMK AO2
METAR KC99 072015Z AUTO 00000KT 10SM CLR 03/M15 A3028 RMK AO2

KGJT 071729Z 0718/0818 17010KT P6SM FEW250
     FM072200 27006KT P6SM FEW250
     FM080200 09006KT P6SM SCT250
     FM080500 11011KT P6SM SCT250
METAR KGJT 072053Z VRB04KT 10SM CLR 18/M09 A3008 RMK AO2 SLP150
       T01781094 58022 $
METAR KGJT 071953Z 32006KT 10SM CLR 18/M09 A3011 RMK AO2 SLP161
       T01781089 $
METAR KGJT 071853Z VRB03KT 10SM CLR 17/M08 A3014 RMK AO2 SLP169
       T01671083 $

KRIL 071729Z 0718/0818 29004KT P6SM FEW250
     FM072300 23006KT P6SM FEW250
     FM080300 18003KT P6SM SCT250
METAR KRIL 072053Z AUTO 25005KT 10SM CLR 17/M08 A3011 RMK AO2 SLP173
       T01671078 58021
METAR KRIL 071953Z AUTO 23007KT 10SM CLR 16/M08 A3013 RMK AO2 SLP182
       T01561078
METAR KRIL 071853Z AUTO 00000KT 10SM CLR 14/M08 A3016 RMK AO2 SLP195
       T01391083

METAR K5SM 072055Z AUTO 22003KT 10SM CLR 04/M10 A3032 RMK AO2
METAR K5SM 072035Z AUTO 22005KT 170V320 10SM CLR 04/M10 A3032 RMK
       AO2
METAR K5SM 072015Z AUTO 23004G15KT 10SM CLR 04/M10 A3033 RMK AO2

KEGE 071729Z 0718/0818 00000KT P6SM FEW250
     FM071900 22005KT P6SM FEW250
     FM080200 12004KT P6SM SCT250
METAR KEGE 072056Z 25016G20KT 10SM CLR 15/M07 A3014 RMK AO2 SLP205 6////
       T01501067 58022 PNO $
METAR KEGE 071956Z VRB03KT 10SM CLR 14/M07 A3016 RMK AO2 SLP212
       T01391072 PNO $
METAR KEGE 071856Z 00000KT 10SM CLR 11/M07 A3020 RMK AO2 SLP233
       T01111067 PNO $

KASE 071729Z 0718/0818 26003KT P6SM FEW250
     FM072000 30007KT P6SM FEW250
     FM080000 24008KT P6SM FEW250
     FM080200 19006KT P6SM SCT250
METAR KASE 072053Z 17008KT 10SM CLR 12/M11 A3016 RMK AO2 SLP161
       T01171106 58012
METAR KASE 071953Z 00000KT 10SM CLR 12/M11 A3018 RMK AO2 SLP165
       T01171111
METAR KASE 071853Z COR 16009G15KT 10SM CLR 11/M11 A3020 RMK AO2 SLP173
       T01111106

METAR KCCU 072055Z AUTO 21008KT 10SM CLR 03/M12 RMK AO2
METAR KCCU 072035Z AUTO 21006KT 10SM CLR 03/M13 RMK AO2
METAR KCCU 072015Z AUTO 18010G14KT 10SM CLR 03/M13 RMK AO2

METAR KLXV 072053Z AUTO 16008KT 10SM CLR 05/M11 A3024 RMK AO2 SLP162
       T00501111 58013
METAR KLXV 071953Z AUTO 18008KT 10SM CLR 04/M11 A3026 RMK AO2 SLP170
       T00441111
METAR KLXV 071853Z AUTO 21005KT 10SM CLR 04/M12 A3028 RMK AO2 SLP190
       T00391117

Sunrise/Sunset for 03/07/2021
Rangely           - 06:38:23 MST / 18:13:35 MST
Grand Junction    - 06:36:58 MST / 18:13:12 MST
Steamboat Springs - 06:30:46 MST / 18:05:33 MST

Grand Junction (KGJX) 03/07/21 20:47 UTC
Radar VAD winds      Height      Dir/Spd(kt)
                  14000 FT MSL...248/017
                  13000 FT MSL...220/013
                  12000 FT MSL...202/011
                  10400 FT MSL...156/012
                  10000 FT MSL...200/009
                   9900 FT MSL...110/014

Grand Junction Aviation Discussion
Issued at 2046 UTC Sunday, March  7, 2021

.AVIATION...(For the 18Z TAFS through 18Z Monday afternoon)
Issued at 1029 AM MST Sun Mar 7 2021
VFR conditions are expected for the next 24 hours. A few high
clouds will pass overhead during the afternoon before increasing
this evening. Ceilings will remain well above ILS breakpoints
overnight.


* * * * * Southwest Colorado * * * * *

METAR KAJZ 072055Z AUTO 17005KT 10SM CLR 20/M10 A3012 RMK AO2 T01961102
METAR KAJZ 072035Z AUTO 00000KT 10SM CLR 20/M10 A3012 RMK AO2
       T01981100
METAR KAJZ 072015Z AUTO 04003KT 10SM CLR 19/M10 A3013 RMK AO2
       T01941099

KMTJ 071729Z 0718/0818 13010KT P6SM FEW250
     FM071900 27007KT P6SM FEW250
     FM080200 16007KT P6SM SCT250
METAR KMTJ 072053Z AUTO 26010G15KT 10SM CLR 18/M08 A3013 RMK AO2 SLP163
       T01781083 58020
METAR KMTJ 071953Z AUTO 00000KT 10SM CLR 16/M07 A3016 RMK AO2 SLP174
       T01611072
METAR KMTJ 071853Z AUTO 16005KT 10SM CLR 16/M07 A3018 RMK AO2 SLP184
       T01561072

METAR KGUC 072056Z AUTO 00000KT 10SM CLR 05/M06 A3024 RMK AO2 SLP265
       T00501061 58023
METAR KGUC 071956Z AUTO 15003KT 10SM CLR 02/M08 A3027 RMK AO2 SLP281
       T00171083 FZRANO
METAR KGUC 071856Z AUTO 14003KT 10SM CLR 01/M08 A3031 RMK AO2 SLP296
       T00061083 FZRANO

METAR K7BM 072055Z AUTO 13008KT 10SM CLR 11/M12 A3025 RMK AO2
METAR K7BM 072035Z AUTO 13006KT 10SM CLR 10/M12 A3026 RMK AO2
METAR K7BM 072015Z AUTO 14005KT 10SM CLR 08/M12 A3027 RMK AO2

METAR KAEJ 072055Z AUTO 13006KT 10SM CLR 13/M17 A3018 RMK AO2
       T01271172
METAR KAEJ 072035Z AUTO 11006KT 10SM CLR 13/M16 A3019 RMK AO2
       T01261163
METAR KAEJ 072015Z AUTO 00000KT 10SM CLR 12/M16 A3020 RMK AO2
       T01161165

METAR KANK 072055Z AUTO 22012G17KT 10SM CLR 16/M13 A3024 RMK AO1 T01631133
METAR KANK 072035Z AUTO 21013G18KT 10SM CLR 15/M13 A3025 RMK AO1
       T01501133
METAR KANK 072015Z AUTO 20012G16KT 10SM CLR 14/M13 A3026 RMK AO1
       T01421133

METAR KMYP 072055Z AUTO 26016KT 10SM CLR 02/M13 A3044 RMK AO2 TSNO
METAR KMYP 072035Z AUTO 26020G23KT 10SM CLR 01/M13 A3044 RMK AO2
       TSNO
METAR KMYP 072020Z AUTO 23018G24KT 10SM CLR 01/M12 A3045 RMK AO2
       TSNO


KTEX 071729Z 0718/0818 19006KT P6SM FEW250
     FM072200 22008G14KT P6SM FEW250
     FM080200 14006KT P6SM SCT200
METAR KTEX 072055Z AUTO 28009KT 10SM CLR 10/M12 A3025 RMK AO2
METAR KTEX 072035Z AUTO 29009KT 10SM CLR 10/M12 A3026 RMK AO2
METAR KTEX 072015Z AUTO 27011KT 10SM CLR 10/M12 A3026 RMK AO2


METAR KCEZ 072053Z AUTO VRB05KT 10SM CLR 17/M06 A3016 RMK AO2 SLP184
       T01721061 58019
METAR KCEZ 071953Z AUTO 10SM CLR 17/M06 A3018 RMK AO2 SLP188
       T01671056
METAR KCEZ 071853Z AUTO VRB05KT 10SM CLR 16/M06 A3021 RMK AO2 SLP193
       T01611056

KDRO 071729Z 0718/0818 10003KT P6SM FEW250
     FM072000 20006KT P6SM FEW250
     FM080200 36004KT P6SM SCT250
     FM080800 05003KT P6SM SCT200
METAR KDRO 072053Z AUTO VRB05KT 10SM CLR 14/M06 A3019 RMK AO2 SLP207
       T01441056 58021
METAR KDRO 071953Z AUTO 08007KT 10SM CLR 13/M05 A3021 RMK AO2 SLP214
       T01281050
METAR KDRO 071853Z AUTO 14006KT 10SM CLR 12/M05 A3025 RMK AO2 SLP230
       T01171050

METAR KPSO 072055Z AUTO 20004KT 10SM CLR 13/M11 A3023 RMK AO2
       T01281106
METAR KPSO 072035Z AUTO 20004KT 10SM CLR 12/M08 A3024 RMK AO2
       T01241083
METAR KPSO 072015Z AUTO 00000KT 10SM CLR 12/M08 A3024 RMK AO2
       T01211082

METAR KCPW 072055Z AUTO 23008KT 10SM CLR 02/M11 A3041 RMK AO2
METAR KCPW 072035Z AUTO 21007KT 10SM CLR 02/M10 A3042 RMK AO2
METAR KCPW 072015Z AUTO 23007KT 10SM CLR 02/M10 A3042 RMK AO2

KALS 071723Z 0718/0818 VRB04KT P6SM FEW250
     FM072100 21007KT P6SM FEW250
     FM080900 18005KT P6SM BKN130
     FM081600 21011KT P6SM BKN050
METAR KALS 072052Z AUTO 00000KT 10SM CLR 13/M13 A3020 RMK AO2 SLP206
        T01331128 58020
METAR KALS 071952Z AUTO 00000KT 10SM CLR 13/M12 A3023 RMK AO2 SLP222
       T01281117
METAR KALS 071852Z AUTO 17005KT 10SM CLR 11/M09 A3026 RMK AO2 SLP237
       T01061094

Sunrise/Sunset for 03/07/2021
Vail    - 06:28:28 MST / 18:04:08 MST
Durango - 06:33:19 MST / 18:11:23 MST
Alamosa - 06:25:26 MST / 18:03:18 MST

Grand Junction (KGJX) 03/07/21 20:47 UTC
Radar VAD winds      Height      Dir/Spd(kt)
                  14000 FT MSL...248/017
                  13000 FT MSL...220/013
                  12000 FT MSL...202/011
                  10400 FT MSL...156/012
                  10000 FT MSL...200/009
                   9900 FT MSL...110/014

Grand Junction Aviation Discussion
Issued at 2046 UTC Sunday, March  7, 2021

.AVIATION...(For the 18Z TAFS through 18Z Monday afternoon)
Issued at 1029 AM MST Sun Mar 7 2021
VFR conditions are expected for the next 24 hours. A few high
clouds will pass overhead during the afternoon before increasing
this evening. Ceilings will remain well above ILS breakpoints
overnight.


* * * * * Arizona * * * * *

KPGA 071738Z 0718/0818 VRB05KT P6SM BKN250
METAR KPGA 072053Z AUTO 01005KT 10SM CLR 19/M09 A3007 RMK AO2 SLP143
       T01941089 58022 TSNO
METAR KPGA 071953Z AUTO 33004KT 10SM CLR 17/M08 A3010 RMK AO2 SLP157
       T01721083 TSNO
METAR KPGA 071853Z AUTO 01003KT 10SM CLR 17/M09 A3012 RMK AO2 SLP163
       T01721089 TSNO

METAR KRQE 072053Z AUTO 23013G18KT 10SM CLR 18/M17 A3017 RMK AO2 SLP158
       T01831167 58018 TSNO
METAR KRQE 071953Z AUTO 17009G14KT 10SM CLR 17/M12 A3020 RMK AO2 SLP168
       T01721117 TSNO
METAR KRQE 071853Z AUTO 16007KT 10SM CLR 17/M08 A3023 RMK AO2 SLP175
       T01671083 TSNO

Flagstaff (KFSX) 03/07/21 20:51 UTC
Radar VAD winds      Height      Dir/Spd(kt)
                  12000 FT MSL...222/024
                  11000 FT MSL...207/013
                  10800 FT MSL...153/013
                  10000 FT MSL...197/014
                   9900 FT MSL...199/011
                   9100 FT MSL...201/013
                   9000 FT MSL...196/016
                   8500 FT MSL...202/011
                   8000 FT MSL...198/016
                   7800 FT MSL...205/014
                   7400 FT MSL...209/013
                   7400 FT MSL...207/008

Flagstaff Aviation Discussion
Issued at 1644 UTC Sunday, March  7, 2021

.AVIATION...For the 18Z package...Expect VFR conditions for the 24
hour TAF forecast period. Sfc winds S-SW10-20g25kts 18Z-01Z. Winds
diminish this evening, but will remain locally breezy along and just
north of higher terrain features. Aviation discussion not updated
for TAF amendments.


* * * * * Utah * * * * *

KSLC 072041Z 0721/0824 32007KT P6SM FEW200
     FM080400 15008KT P6SM SCT120 BKN150
     FM081600 15011G17KT P6SM SCT120 SCT180
     FM081800 18020G35KT P6SM FEW100 SCT120
METAR KSLC 072054Z 31007KT 10SM FEW220 14/M01 A3007 RMK AO2 SLP169
        T01391006 58016 $
METAR KSLC 071954Z 33007KT 10SM FEW220 13/M01 A3010 RMK AO2 SLP179
        T01281006 $
METAR KSLC 071854Z 33006KT 10SM FEW220 12/M02 A3012 RMK AO2 SLP185
        T01171017 $

KVEL 071729Z 0718/0818 11003KT P6SM FEW250
     FM071900 19005KT P6SM FEW250
     FM080200 28005KT P6SM SCT250
METAR KVEL 072053Z AUTO 10SM CLR 16/M09 A3008 RMK AO2 SLP167 T01611089
       58020
METAR KVEL 071953Z AUTO VRB03KT 10SM CLR 13/M07 A3011 RMK AO2 SLP184
       T01331072
METAR KVEL 071853Z AUTO 16004KT 10SM CLR 12/M06 A3014 RMK AO2 SLP197
       T01171056

METAR KPUC 072053Z AUTO 14003KT 10SM CLR 15/M09 A3010 RMK AO2 SLP182
        T01501094 58015
METAR KPUC 071953Z AUTO 13006KT 10SM CLR 14/M08 A3012 RMK AO2 SLP190
        T01441083
METAR KPUC 071853Z AUTO VRB03KT 10SM CLR 13/M08 A3014 RMK AO2 SLP202
       T01331078

KCNY 071729Z 0718/0818 12006KT P6SM FEW250
     FM071900 20006KT P6SM FEW250
METAR KCNY 072053Z AUTO 10SM CLR 19/M10 A3004 RMK AO2 SLP148 T01941100
       58024
METAR KCNY 071953Z AUTO 10SM CLR 18/M09 A3007 RMK AO2 SLP152
       T01831094
METAR KCNY 071853Z AUTO 32003KT 10SM CLR 17/M08 A3010 RMK AO2 SLP164
       T01721083


Salt Lake City (KMTX) 03/07/21 20:51 UTC
Radar VAD winds      Height      Dir/Spd(kt)
                  22000 FT MSL...278/012
                  19000 FT MSL...016/003
                  17900 FT MSL...358/003
                  16000 FT MSL...004/003
                  15600 FT MSL...318/005
                  12200 FT MSL...340/003
                  11000 FT MSL...077/008
                  10000 FT MSL...310/007
                   9100 FT MSL...006/002
                   9000 FT MSL...018/002
                   8400 FT MSL...074/003
                   8000 FT MSL...282/011
                   7700 FT MSL...068/003
                   6900 FT MSL...227/004
                   6900 FT MSL...294/003
                   6600 FT MSL...216/004

Salt Lake City Aviation Discussion
Issued at 1707 UTC Sunday, March  7, 2021

.AVIATION...No weather concerns through the TAF period at the SLC
terminal. Light and variable winds are expected to become
predominantly northwest between 18-19z, switching back to southeast
between 03-04z this evening.


* * * * * Wyoming * * * * *

KEVW 071736Z 0718/0818 25008KT P6SM FEW200
     FM080300 VRB05KT P6SM SCT200
     FM080600 16008KT P6SM FEW120 SCT200
     FM081400 20010KT P6SM SCT120 SCT200=
METAR KEVW 072053Z AUTO VRB05KT 10SM CLR 08/M06 A3013 RMK AO2 SLP181
       T00831061 58008 $
METAR KEVW 071953Z AUTO 26009KT 10SM CLR 08/M06 A3014 RMK AO2 SLP184
       T00781056 $
METAR KEVW 071853Z AUTO 24008KT 10SM CLR 06/M06 A3016 RMK AO2 SLP196
       T00561056 $

KRKS 071720Z 0718/0818 24008KT P6SM SKC
     FM080100 18005KT P6SM SKC
     FM080800 15007KT P6SM BKN250
METAR KRKS 072054Z AUTO 29009KT 10SM CLR 10/M07 A3012 RMK AO2 SLP183
        T01001072 58012
METAR KRKS 071954Z AUTO 26010KT 10SM CLR 09/M07 A3014 RMK AO2 SLP190
        T00941067
METAR KRKS 071854Z AUTO 24004KT 10SM CLR 08/M06 A3016 RMK AO2 SLP196
        T00781061

KRWL 071905Z 0719/0818 24012KT P6SM SKC
     FM080100 23006KT P6SM FEW250
     FM081200 17005KT P6SM SCT250
METAR KRWL 072053Z AUTO 22013KT 10SM CLR 11/M05 A3013 RMK AO2 SLP164
       T01061050 58007
METAR KRWL 071953Z AUTO 23013G20KT 10SM CLR 10/M06 A3013 RMK AO2 SLP170
       T01001056
METAR KRWL 071853Z AUTO 23012KT 10SM CLR 09/M06 A3016 RMK AO2 SLP178
       T00941061

KLAR 071723Z 0718/0818 22017G24KT P6SM SKC
     FM080200 19007KT P6SM SKC
METAR KLAR 072053Z AUTO 26014G20KT 10SM CLR 14/M12 A3011 RMK AO2 PK WND
       25026/2027 SLP136 T01391122 56004
METAR KLAR 071953Z AUTO 23019G26KT 10SM CLR 13/M12 A3011 RMK AO2 PK WND
       26036/1926 SLP137 T01281122
METAR KLAR 071853Z AUTO 25021G27KT 10SM CLR 13/M12 A3012 RMK AO2 PK WND
       24027/1853 SLP138 T01281122

KCYS 071904Z 0719/0818 27015KT P6SM SKC
     FM080100 24006KT P6SM SKC
METAR KCYS 072053Z 22013G21KT 170V240 10SM CLR 18/M12 A3006 RMK AO2
       SLP127 T01781117 58011
METAR KCYS 071953Z 24008KT 200V270 10SM CLR 18/M13 A3008 RMK AO2 SLP134
       T01781128
METAR KCYS 071853Z 27014G21KT 10SM CLR 16/M13 A3010 RMK AO2 PK WND
       25026/1804 SLP149 T01611128

Riverton (KRIW) 03/07/21 20:53 UTC
Radar VAD winds      Height      Dir/Spd(kt)
                  16000 FT MSL...194/001
                  14000 FT MSL...331/002
                  11000 FT MSL...325/017
                   8200 FT MSL...180/005
                   8000 FT MSL...158/004
                   7400 FT MSL...124/010
                   6200 FT MSL...109/007
                   6000 FT MSL...111/006
                   6000 FT MSL...109/007

Cheyenne (KCYS) 03/07/21 20:48 UTC
Radar VAD winds      Height      Dir/Spd(kt)
                  10000 FT MSL...235/014
                   9000 FT MSL...231/016
                   8000 FT MSL...209/011
                   7200 FT MSL...238/006
                   7000 FT MSL...203/009

Riverton Aviation Discussion
Issued at 2036 UTC Sunday, March  7, 2021

.AVIATION...(For the 00Z TAFS through 00Z Monday evening)
Expect VFR conditions to continue through the forecast period.
Have increased winds out of the south and southwest after 18Z
through the end of the forecast period for most of the TAF sites
and expect winds to increase out of the southwest along the wind
corridor from KRKS to KCPR after 20Z-21Z through the end of the
forecast period to at or above 20 knots sustained.

Cheyenne Aviation Discussion
Issued at 1722 UTC Sunday, March  7, 2021

.AVIATION...(For the 18Z TAFS through 18Z Monday morning)
Issued at 1021 AM MST Sun Mar 7 2021
VFR will prevail through the forecast period with generally light
winds and mainly clear skies. There may be some wind gusts around
20 kts mainly affecting KRWL this afternoon.


* * * * * Nebraska * * * * *

METAR KIBM 072055Z AUTO 00000KT 10SM CLR 18/M08 A3007 RMK AO2
       T01791078
METAR KIBM 072035Z AUTO 00000KT 10SM CLR 18/M08 A3007 RMK AO2
       T01761076
METAR KIBM 072015Z AUTO 00000KT 10SM CLR 17/M08 A3008 RMK AO2
       T01711077

KSNY 071725Z 0718/0818 34011KT P6SM SKC
     FM080000 17007KT P6SM SKC
METAR KSNY 072053Z AUTO 00000KT 10SM CLR 19/M06 A3004 RMK AO2 SLP161
       T01941061 58009 $
METAR KSNY 071953Z AUTO 30010G16KT 10SM CLR 20/M05 A3005 RMK AO2 SLP161
       T02001050 $
METAR KSNY 071853Z AUTO 33010KT 10SM CLR 19/M05 A3007 RMK AO2 SLP170
       T01891050 $

METAR KOGA 072055Z AUTO 33008KT 10SM CLR 23/M06 A3003 RMK AO2
       T02261059
METAR KOGA 072035Z AUTO 30007KT 280V340 10SM CLR 23/M06 A3003 RMK AO2
       T02291058
METAR KOGA 072015Z AUTO 33010KT 10SM CLR 22/M05 A3003 RMK AO2
       T02231055

METAR KIML 072053Z AUTO VRB04KT 10SM CLR 24/M04 A3003 RMK AO2 SLP157
       T02391039 55004
METAR KIML 071953Z AUTO 04008KT 10SM CLR 22/M03 A3003 RMK AO2 SLP159
       T02171033
METAR KIML 071853Z AUTO 36010KT 10SM CLR 22/M04 A3005 RMK AO2 SLP164
       T02171039

KMCK 071720Z 0718/0818 VRB06KT P6SM SKC
     FM081750 16013KT P6SM SCT250
METAR KMCK 072053Z AUTO 09007KT 10SM CLR 20/M03 A3002 RMK AO2 SLP161
       T02001028 57008
METAR KMCK 071953Z AUTO VRB04KT 10SM CLR 19/M02 A3003 RMK AO2 SLP161
       T01941022
METAR KMCK 071853Z AUTO VRB04KT 10SM CLR 18/M02 A3005 RMK AO2 SLP168
       T01831017

North Platte (KLNX) 03/07/21 20:47 UTC
Radar VAD winds      Height      Dir/Spd(kt)
                   7600 FT MSL...332/008
                   7000 FT MSL...349/008
                   6000 FT MSL...358/007
                   5900 FT MSL...355/007
                   5000 FT MSL...357/007
                   4100 FT MSL...360/007
                   4000 FT MSL...002/008
                   4000 FT MSL...004/006
                   3400 FT MSL...358/008

North Platte Aviation Discussion
Issued at 1752 UTC Sunday, March  7, 2021

.AVIATION...(For the 18Z TAFS through 18Z Monday afternoon)
Issued at 1150 AM CST Sun Mar 7 2021
VFR conditions are expected through the forecast period with light
winds at less than ten knots. Winds will switch to the northeast
and eventually the southeast by the end of the period with
stronger winds just beyond the forecast period.


* * * * * Kansas * * * * *

KGLD 071910Z 0719/0818 05012KT P6SM SKC
     FM072300 VRB06KT P6SM SKC
     FM081500 18012KT P6SM SCT250
METAR KGLD 072053Z AUTO 06010KT 10SM CLR 22/M05 A3004 RMK AO2 SLP154
       T02221050 58006
METAR KGLD 071953Z AUTO 07010KT 10SM CLR 22/M04 A3004 RMK AO2 SLP152
       T02171044
METAR KGLD 071853Z AUTO 05012G20KT 10SM CLR 21/M04 A3006 RMK AO2 SLP159
       T02111039

KGCK 071720Z 0718/0818 21024G33KT P6SM SKC
     FM080000 18012KT P6SM FEW250
     FM081500 18015G23KT P6SM FEW250
METAR KGCK 072054Z 22019G29KT 10SM CLR 21/M01 A3005 RMK AO2 PK WND
       20035/2030 SLP164 T02061006 56013
METAR KGCK 071954Z 21021G31KT 10SM CLR 20/01 A3006 RMK AO2 PK WND
       19034/1938 SLP167 T02000006
METAR KGCK 071854Z 21024G32KT 10SM CLR 18/00 A3008 RMK AO2 PK WND
       22034/1756 SLP176 T01830000

METAR KLBL 072056Z AUTO 20024G31KT 10SM CLR 22/02 A3008 RMK AO2 PK WND
       20035/2008 SLP172 T02170017 56022
METAR KLBL 071956Z AUTO 20024G31KT 10SM CLR 20/02 A3010 RMK AO2 PK WND
       20033/1858 SLP181 T02000017
METAR KLBL 071856Z AUTO 21023G31KT 10SM CLR 19/02 A3012 RMK AO2 PK WND
       20037/1828 SLP190 T01890017


Goodland (KGLD) 03/07/21 20:55 UTC
Radar VAD winds      Height      Dir/Spd(kt)
                   7100 FT MSL...052/012
                   7000 FT MSL...059/012
                   6200 FT MSL...049/011
                   6000 FT MSL...050/010
                   5400 FT MSL...063/011
                   5000 FT MSL...063/008
                   4800 FT MSL...063/010
                   4300 FT MSL...063/012
                   4000 FT MSL...069/012
                   4000 FT MSL...070/013

Dodge City (KDDC) 03/07/21 20:53 UTC
Radar VAD winds      Height      Dir/Spd(kt)
                  11000 FT MSL...051/003
                   9000 FT MSL...203/013
                   8800 FT MSL...200/012
                   8000 FT MSL...215/026
                   7100 FT MSL...199/026
                   7000 FT MSL...203/025
                   6000 FT MSL...201/029
                   5400 FT MSL...202/023
                   5000 FT MSL...200/030
                   4000 FT MSL...196/030
                   3800 FT MSL...196/025
                   3600 FT MSL...194/031
                   3000 FT MSL...196/026
                   3000 FT MSL...196/026

Goodland Aviation Discussion
Issued at 1545 UTC Sunday, March  7, 2021

.AVIATION...(For the 18Z TAFS through 18Z Monday afternoon)
Issued at 845 AM MST Sun Mar 7 2021
...Excellent aviation weather...
VFR conditions /clear skies/ will rule through the TAF period.
Upper level cloud cover (ceilings 20+ KFT) will gradually increase
from the west during the day on Monday. Light and variable winds
will prevail through tonight.. becoming S-SSE at 10-15 knots late
Monday morning (15-18Z Mon).

Dodge City Aviation Discussion
Issued at 1946 UTC Sunday, March  7, 2021

.AVIATION...(For the 18Z TAFS through 18Z Monday afternoon)
Issued at 1113 AM CST Sun Mar 7 2021
Southwest winds at 25 knots can be expected this afternoon. Wind
gusts as high as near 40 knots will also be possible at times
through 21z Sunday. These gusty winds will fall back to around 15
knots after 00z Monday as the boundary layer wind decouples.
Limited moisture will be present across southwest Kansas so VFR
conditions can be expected over the next 24 hours. HRRR BUFR
soundings also showing winds of 40 to 45 knots possible overnight
in the 1500 to 2000ft AGL level.


* * * * * Texas/Oklahoma * * * * *

KGUY 071729Z 0718/0818 21025G35KT P6SM SKC
     FM080100 18012KT P6SM SKC
     FM081700 20019G28KT P6SM BKN250=
METAR KGUY 072053Z AUTO 21019G27KT 10SM CLR 22/00 A3005 RMK AO2 PK WND
       18032/2023 SLP150 T02220000 58022
METAR KGUY 071953Z AUTO 21020G28KT 10SM CLR 21/01 A3007 RMK AO2 PK WND
       21033/1915 SLP158 T02110011
METAR KGUY 071853Z AUTO 20021G28KT 10SM CLR 20/01 A3010 RMK AO2 PK WND
       21032/1801 SLP170 T02000011

KDHT 071729Z 0718/0818 21018G26KT P6SM SKC
     FM080100 18011KT P6SM SKC
     FM081600 20015KT P6SM BKN250
METAR KDHT 072053Z AUTO 21014G20KT 10SM CLR 21/M02 A3012 RMK AO2 SLP174
       T02061022 58015
METAR KDHT 071953Z AUTO 22016G22KT 10SM CLR 20/M02 A3013 RMK AO2 SLP179
       T02001017
METAR KDHT 071853Z AUTO 22015G26KT 10SM CLR 18/M01 A3016 RMK AO2 PK WND
       21028/1808 SLP192 T01831011

Amarillo (KAMA) 03/07/21 20:48 UTC
Radar VAD winds      Height      Dir/Spd(kt)
                  13000 FT MSL...163/009
                  12000 FT MSL...264/003
                  11500 FT MSL...266/005
                  11000 FT MSL...263/007
                  10000 FT MSL...247/013
                   9900 FT MSL...246/013
                   9000 FT MSL...228/017
                   8100 FT MSL...219/019
                   8000 FT MSL...216/019
                   7000 FT MSL...203/022
                   6400 FT MSL...201/024
                   6000 FT MSL...198/024
                   5000 FT MSL...195/025
                   4600 FT MSL...198/023
                   4600 FT MSL...192/025
                   4000 FT MSL...197/024
                   4000 FT MSL...196/025

Amarillo Aviation Discussion
Issued at 1734 UTC Sunday, March  7, 2021

.AVIATION...18Z TAFS...
VFR conditions will prevail at all TAF sites over the next 24
hours, with mostly clear skies until the end of the TAF period, as
thicker high clouds look to move in. Winds will be the main story.
They should remain mostly out of the south, and will be in the
20-25kt range gusting 30 to 35kts in the 15-01z hours (typically
with daytime heating/mixing), and south winds around 10-15kts in
the 02-14z period.
Weber


* * * * * New Mexico * * * * *

KFMN 071726Z 0718/0818 13008KT P6SM SCT250
     FM072100 20007KT P6SM SCT250
     FM080300 08008KT P6SM BKN200
     FM081500 12010KT P6SM BKN090
METAR KFMN 072053Z 24007KT 10SM CLR 19/M08 A3014 RMK AO2 SLP184
       T01891078 58023
METAR KFMN 071953Z 21003KT 10SM CLR 16/M08 A3017 RMK AO2 SLP198
       T01611078
METAR KFMN 071853Z 14005KT 10SM CLR 16/M07 A3020 RMK AO2 SLP206
       T01561067

METAR KSKX 072056Z AUTO VRB04KT 10SM CLR 16/M12 A3021 RMK AO2 SLP217
       T01561117 58020
METAR KSKX 071956Z AUTO 00000KT 10SM CLR 14/M09 A3024 RMK AO2 SLP226
       T01391094
METAR KSKX 071856Z AUTO 30005KT 10SM CLR 13/M08 A3028 RMK AO2 SLP245
       T01281078

KLVS 071726Z 0718/0818 18009KT P6SM SKC
     FM072000 19012G22KT P6SM FEW250
     FM080300 19009KT P6SM BKN200
     FM081700 23015G25KT P6SM BKN150
METAR KLVS 072053Z AUTO 18008KT 10SM CLR 18/M12 A3016 RMK AO2 SLP154
       T01781117
METAR KLVS 071953Z AUTO 18012G17KT 17/M11 A3018 RMK AO2 SLP166 T01721111
       $
METAR KLVS 071853Z AUTO 16010KT 140V200 10SM CLR 17/M13 A3020 RMK AO2
        SLP171 T01721128 $

METAR KRTN 072053Z AUTO VRB05KT 10SM CLR 18/M17 A3012 RMK AO2 SLP162
       T01831167 58017
METAR KRTN 071953Z AUTO 28008KT 10SM CLR 19/M16 A3014 RMK AO2 SLP167
       T01891156
METAR KRTN 071853Z AUTO 16009KT 10SM CLR 18/M16 A3017 RMK AO2 SLP179
       T01781156

METAR KCAO 072055Z AUTO 13007G15KT 100V170 10SM CLR 18/M07 A3010 RMK AO2
       SLP165 T01831072 56014
METAR KCAO 071955Z AUTO 16005KT 10SM CLR 18/M07 A3011 RMK AO2 SLP166
       T01831067
METAR KCAO 071855Z AUTO 19007KT 10SM CLR 18/M06 A3014 RMK AO2 SLP179
       T01781061

Albuquerque (KABX) 03/07/21 20:52 UTC
Radar VAD winds      Height      Dir/Spd(kt)
                  11000 FT MSL...287/015
                  10400 FT MSL...278/029
                   9000 FT MSL...253/006
                   7000 FT MSL...226/007
                   7000 FT MSL...224/006
                   6900 FT MSL...174/007
                   6300 FT MSL...174/007

Albuquerque Aviation Discussion
Issued at 1750 UTC Sunday, March  7, 2021

.AVIATION...
18Z TAF CYCLE
VFR conditions will prevail through the TAF period. With an area of
high pressure overhead, winds will be generally light this afternoon.
The exception will be across east central and northeast NM where
breezy south to southwest wind gusts of 20 to 30 knots are expected
this afternoon. Otherwise, high clouds will increase in coverage from
the west this afternoon into tonight and lower into Monday morning.
This will impact KLVS and KTTC. Stronger winds will develop Monday,
mostly in the east. This will be the start of a pronounced windy
pattern lasting through this Thursday.

* * * * * Winds and Temperatures Aloft Forecasts * * * * *

DATA BASED ON 071200Z
VALID 071800Z   FOR USE 1700-2100Z. TEMPS NEG ABV 24000
FT  3000    6000   9000    12000   18000   24000  30000  34000  39000
SLC      9900    2210+01 2318-05 2444-17 2452-30 245247 245156 244959
BCE                      2223-01 2429-15 2540-29 244546 255056 244360
LND              2616+00 2725-05 2542-17 2552-31 255547 255556 255462
RKS              2412    2523-05 2539-16 2550-30 255347 245156 254862
GJT              2212+03 2319-03 2527-14 2538-28 244246 254356 254263
FMN              2305+05 2412-01 2617-14 2626-28 242945 243455 263664
ABQ              9900+05 2811+00 2810-14 2816-28 271845 272355 283463
MBW              2621    2729-05 2634-16 2645-29 255346 255456 264964
DEN              2810+05 2406-02 2422-15 2732-29 274146 274456 275164
PUB              0907+06 9900-02 2719-15 2724-28 272545 272855 273565
ALS                      2905-01 2610-15 2724-28 262845 263155 273964
TCC      2220    2711+06 2910-01 3116-16 3418-29 022144 352354 323163
BFF      3307    2821+02 2830-03 2730-16 2739-29 275047 275356 275164
GLD      0219    3615+05 3009-02 2919-15 3028-28 302646 293055 283566
GCK      2321+09 2414+06 2910+00 3015-16 3219-28 341745 332155 302765
GAG      2233+05 2320+03 2417-02 3310-16 3009-29 351245 021955 322263
AMA      2127    2416+03 2812-02 3416-16 3312-29 011744 361654 322461
---------------------------------------------------------------------

DATA BASED ON 071200Z
VALID 080000Z   FOR USE 2100-0600Z. TEMPS NEG ABV 24000
FT  3000    6000   9000    12000   18000   24000  30000  34000  39000
SLC      9900    1916+02 2123-04 2441-18 2451-30 256146 257656 256057
BCE                      2124-01 2336-16 2340-30 255143 245554 256259
LND              2515+01 2526-04 2543-18 2548-30 255347 255456 255961
RKS              1909    2216-04 2541-17 2547-30 255447 255656 255659
GJT              1911+05 2117-02 2434-15 2536-29 264445 276555 265359
FMN              1706+08 2213+00 2523-15 2526-29 273943 276354 275961
ABQ              2207+07 2814+02 2617-14 2717-28 294143 286053 285962
MBW              2423    2427-03 2637-17 2646-30 265047 255256 265461
DEN              1610+07 2009-01 2726-15 2631-29 264346 264956 275262
PUB              1611+06 2614-01 2725-14 2824-28 263745 263855 274363
ALS                      2214+00 2621-14 2723-28 273745 284755 274661
TCC      2016    2712+07 2912+01 3109-14 3121-27 282144 283154 294563
BFF      9900    2717+03 2630-04 2732-16 2642-30 264947 275656 275360
GLD      9900    3411+05 2815-02 2721-15 2825-28 273746 264556 274564
GCK      2120+10 2907+06 3010+00 2910-14 3120-28 292646 283356 293965
GAG      2030+06 2720+05 3112+00 3410-15 3620-28 331745 322455 313064
AMA      2023    2716+05 3113+00 3311-14 3523-27 332044 322454 303763
---------------------------------------------------------------------

DATA BASED ON 071200Z
VALID 081200Z   FOR USE 0600-1700Z. TEMPS NEG ABV 24000
FT  3000    6000   9000    12000   18000   24000  30000  34000  39000
SLC      2012    2132+03 2124-03 2242-20 2340-31 225447 235355 246856
BCE                      2139-03 2243-17 2444-29 234745 235253 247153
LND              2218+03 2431-04 2341-20 2348-31 235947 246256 256359
RKS              2223    2423-02 2233-19 2350-30 235646 236256 246757
GJT              2226+06 2231-02 2130-19 2253-28 235745 236154 247056
FMN              2317+07 2325-01 2131-19 2358-26 236343 248154 257256
ABQ              2219+08 2424+01 2235-16 2445-24 255642 267854 277159
MBW              2523    2529-02 2332-18 2344-30 235245 246156 256259
DEN              3008+06 2609+00 2324-16 2341-29 255244 255955 266660
PUB              2518+07 2419+01 2322-15 2338-28 264943 266555 276660
ALS                      2427-01 2330-16 2340-26 255243 256754 276458
TCC      2418    2215+07 2317+02 2525-14 2636-25 284542 286654 296260
BFF      2021    2315+05 2217-03 2533-17 2449-30 255245 266255 276460
GLD      1916    2113+07 2212-01 2521-15 2539-29 284544 285755 285760
GCK      2011+14 2014+07 2508-01 2625-14 2633-28 273543 305154 305361
GAG      2314+10 2014+05 2310+00 2620-14 2625-28 292744 315154 315462
AMA      2420    2112+06 2213+01 2521-13 2727-26 293943 295254 305861
---------------------------------------------------------------------

This product is updated automatically at approximately 10, 30 and 50
minutes after each hour, 24 hours per day, 7 days per week.  It may
become unavailable at times due to system outages without prior notice.
Users are advised to check the time at the top of the product to ensure
that it is current.  Furthermore, content and format of the product are
subject to change without prior notice.

Comments and suggestions are welcome and should be directed to one of
the addresses or phone numbers shown at the bottom of this page.  In
order to expedite a response to comments or suggestions, be sure to
mention your interest in the hot-air balloon forecast.



USA.gov is the U.S. government's official web portal to all federal, state and local government web resources and services.